sensor_id;sensor_type;location;lat;lon;timestamp;temperature;humidity
22676;DHT22;12521;43.310;21.876;2023-07-22T00:02:10;25.5;96.0
22676;DHT22;12521;43.310;21.876;2023-07-22T00:06:46;25.6;96.0
22676;DHT22;12521;43.310;21.876;2023-07-22T00:11:23;25.6;96.0
22676;DHT22;12521;43.310;21.876;2023-07-22T00:16:00;25.6;96.0
22676;DHT22;12521;43.310;21.876;2023-07-22T00:20:37;25.6;96.0
22676;DHT22;12521;43.310;21.876;2023-07-22T00:25:14;25.7;96.0
22676;DHT22;12521;43.310;21.876;2023-07-22T00:29:50;25.7;96.0
22676;DHT22;12521;43.310;21.876;2023-07-22T00:34:26;25.7;96.0
22676;DHT22;12521;43.310;21.876;2023-07-22T00:39:03;25.7;96.0
22676;DHT22;12521;43.310;21.876;2023-07-22T00:43:40;25.7;96.0
22676;DHT22;12521;43.310;21.876;2023-07-22T00:48:17;25.7;96.0
22676;DHT22;12521;43.310;21.876;2023-07-22T00:52:57;25.7;96.0
22676;DHT22;12521;43.310;21.876;2023-07-22T00:57:34;25.6;96.0
22676;DHT22;12521;43.310;21.876;2023-07-22T01:02:13;25.6;96.0
22676;DHT22;12521;43.310;21.876;2023-07-22T01:06:51;25.6;96.0
22676;DHT22;12521;43.310;21.876;2023-07-22T01:11:31;25.6;96.0
22676;DHT22;12521;43.310;21.876;2023-07-22T01:16:08;25.6;96.0
22676;DHT22;12521;43.310;21.876;2023-07-22T01:20:48;25.6;96.0
22676;DHT22;12521;43.310;21.876;2023-07-22T01:34:46;24.9;96.0
22676;DHT22;12521;43.310;21.876;2023-07-22T01:39:23;24.9;96.0
22676;DHT22;12521;43.310;21.876;2023-07-22T01:43:59;24.9;96.0
22676;DHT22;12521;43.310;21.876;2023-07-22T01:48:36;24.9;96.0
22676;DHT22;12521;43.310;21.876;2023-07-22T01:53:12;24.9;96.0
22676;DHT22;12521;43.310;21.876;2023-07-22T01:57:49;24.6;96.0
22676;DHT22;12521;43.310;21.876;2023-07-22T02:02:26;24.6;96.0
22676;DHT22;12521;43.310;21.876;2023-07-22T02:07:03;24.4;96.0
22676;DHT22;12521;43.310;21.876;2023-07-22T02:11:40;24.4;96.0
22676;DHT22;12521;43.310;21.876;2023-07-22T02:16:17;24.2;96.0
22676;DHT22;12521;43.310;21.876;2023-07-22T02:20:56;24.2;96.0
22676;DHT22;12521;43.310;21.876;2023-07-22T02:25:33;24.0;96.0
22676;DHT22;12521;43.310;21.876;2023-07-22T02:30:11;24.0;96.0
22676;DHT22;12521;43.310;21.876;2023-07-22T02:34:48;23.9;96.0
22676;DHT22;12521;43.310;21.876;2023-07-22T02:39:24;23.9;96.0
22676;DHT22;12521;43.310;21.876;2023-07-22T02:44:01;23.9;96.0
22676;DHT22;12521;43.310;21.876;2023-07-22T02:48:37;23.8;96.0
22676;DHT22;12521;43.310;21.876;2023-07-22T02:53:13;23.8;96.0
22676;DHT22;12521;43.310;21.876;2023-07-22T02:57:50;23.8;96.0
22676;DHT22;12521;43.310;21.876;2023-07-22T03:02:26;23.8;96.0
22676;DHT22;12521;43.310;21.876;2023-07-22T03:07:03;23.9;96.0
22676;DHT22;12521;43.310;21.876;2023-07-22T03:11:39;23.9;96.0
22676;DHT22;12521;43.310;21.876;2023-07-22T03:16:16;23.8;96.0
22676;DHT22;12521;43.310;21.876;2023-07-22T03:20:53;23.8;96.0
22676;DHT22;12521;43.310;21.876;2023-07-22T03:25:30;23.8;96.0
22676;DHT22;12521;43.310;21.876;2023-07-22T03:30:17;23.8;96.0
22676;DHT22;12521;43.310;21.876;2023-07-22T03:34:57;23.8;96.0
22676;DHT22;12521;43.310;21.876;2023-07-22T03:39:33;23.8;96.0
22676;DHT22;12521;43.310;21.876;2023-07-22T03:44:10;23.8;96.0
22676;DHT22;12521;43.310;21.876;2023-07-22T03:48:47;23.7;96.0
22676;DHT22;12521;43.310;21.876;2023-07-22T03:53:24;23.7;96.0
22676;DHT22;12521;43.310;21.876;2023-07-22T03:58:00;23.7;96.0
22676;DHT22;12521;43.310;21.876;2023-07-22T04:02:38;23.7;96.0
22676;DHT22;12521;43.310;21.876;2023-07-22T04:07:15;23.7;96.0
22676;DHT22;12521;43.310;21.876;2023-07-22T04:11:52;23.7;96.0
22676;DHT22;12521;43.310;21.876;2023-07-22T04:16:29;23.8;96.0
22676;DHT22;12521;43.310;21.876;2023-07-22T04:21:06;23.8;96.0
22676;DHT22;12521;43.310;21.876;2023-07-22T04:25:45;23.8;96.0
22676;DHT22;12521;43.310;21.876;2023-07-22T04:30:21;23.8;96.0
22676;DHT22;12521;43.310;21.876;2023-07-22T04:34:58;23.8;96.0
22676;DHT22;12521;43.310;21.876;2023-07-22T04:39:36;23.8;96.0
22676;DHT22;12521;43.310;21.876;2023-07-22T04:44:13;23.8;96.0
22676;DHT22;12521;43.310;21.876;2023-07-22T04:48:50;23.7;96.0
22676;DHT22;12521;43.310;21.876;2023-07-22T04:53:26;23.7;96.0
22676;DHT22;12521;43.310;21.876;2023-07-22T04:58:03;23.9;96.0
22676;DHT22;12521;43.310;21.876;2023-07-22T05:02:39;23.9;96.0
22676;DHT22;12521;43.310;21.876;2023-07-22T05:07:15;24.1;96.0
22676;DHT22;12521;43.310;21.876;2023-07-22T05:11:52;24.1;96.0
22676;DHT22;12521;43.310;21.876;2023-07-22T05:16:28;24.2;96.0
22676;DHT22;12521;43.310;21.876;2023-07-22T05:21:05;24.2;96.0
22676;DHT22;12521;43.310;21.876;2023-07-22T05:25:41;24.4;96.0
22676;DHT22;12521;43.310;21.876;2023-07-22T05:30:17;24.4;96.0
22676;DHT22;12521;43.310;21.876;2023-07-22T05:34:53;24.5;96.0
22676;DHT22;12521;43.310;21.876;2023-07-22T05:39:29;24.5;96.0
22676;DHT22;12521;43.310;21.876;2023-07-22T05:44:05;24.5;96.0
22676;DHT22;12521;43.310;21.876;2023-07-22T05:48:42;24.7;96.0
22676;DHT22;12521;43.310;21.876;2023-07-22T05:53:18;24.7;96.0
22676;DHT22;12521;43.310;21.876;2023-07-22T05:57:55;24.8;96.0
22676;DHT22;12521;43.310;21.876;2023-07-22T06:02:33;24.8;96.0
22676;DHT22;12521;43.310;21.876;2023-07-22T06:07:09;25.0;96.0
22676;DHT22;12521;43.310;21.876;2023-07-22T06:11:46;25.0;96.0
22676;DHT22;12521;43.310;21.876;2023-07-22T06:16:23;25.1;96.0
22676;DHT22;12521;43.310;21.876;2023-07-22T06:21:00;25.1;96.0
22676;DHT22;12521;43.310;21.876;2023-07-22T06:25:37;25.2;96.0
22676;DHT22;12521;43.310;21.876;2023-07-22T06:30:13;25.2;96.0
22676;DHT22;12521;43.310;21.876;2023-07-22T06:34:50;25.4;96.0
22676;DHT22;12521;43.310;21.876;2023-07-22T06:39:27;25.4;96.0
22676;DHT22;12521;43.310;21.876;2023-07-22T06:44:04;25.4;96.0
22676;DHT22;12521;43.310;21.876;2023-07-22T06:48:40;25.6;96.0
22676;DHT22;12521;43.310;21.876;2023-07-22T06:53:17;25.6;96.0
22676;DHT22;12521;43.310;21.876;2023-07-22T06:57:56;26.0;96.0
22676;DHT22;12521;43.310;21.876;2023-07-22T07:02:33;26.0;96.0
22676;DHT22;12521;43.310;21.876;2023-07-22T07:07:09;26.5;96.0
22676;DHT22;12521;43.310;21.876;2023-07-22T07:11:46;26.5;96.0
22676;DHT22;12521;43.310;21.876;2023-07-22T07:16:31;26.8;96.0
22676;DHT22;12521;43.310;21.876;2023-07-22T07:21:08;26.8;96.0
22676;DHT22;12521;43.310;21.876;2023-07-22T07:25:44;27.0;96.0
22676;DHT22;12521;43.310;21.876;2023-07-22T07:30:21;27.0;96.0
22676;DHT22;12521;43.310;21.876;2023-07-22T07:34:57;27.4;96.0
22676;DHT22;12521;43.310;21.876;2023-07-22T07:39:34;27.4;96.0
22676;DHT22;12521;43.310;21.876;2023-07-22T07:44:10;27.4;96.0
22676;DHT22;12521;43.310;21.876;2023-07-22T07:48:52;27.7;96.0
22676;DHT22;12521;43.310;21.876;2023-07-22T07:53:30;27.7;96.0
22676;DHT22;12521;43.310;21.876;2023-07-22T07:58:06;27.9;96.0
22676;DHT22;12521;43.310;21.876;2023-07-22T08:02:43;27.9;96.0
22676;DHT22;12521;43.310;21.876;2023-07-22T08:07:19;28.1;96.0
22676;DHT22;12521;43.310;21.876;2023-07-22T08:11:55;28.1;96.0
22676;DHT22;12521;43.310;21.876;2023-07-22T08:16:32;28.4;96.0
22676;DHT22;12521;43.310;21.876;2023-07-22T08:21:08;28.4;96.0
22676;DHT22;12521;43.310;21.876;2023-07-22T08:25:44;28.6;95.0
22676;DHT22;12521;43.310;21.876;2023-07-22T08:30:20;28.6;95.0
22676;DHT22;12521;43.310;21.876;2023-07-22T08:34:57;29.0;95.0
22676;DHT22;12521;43.310;21.876;2023-07-22T08:39:34;29.0;95.0
22676;DHT22;12521;43.310;21.876;2023-07-22T08:44:20;29.0;95.0
22676;DHT22;12521;43.310;21.876;2023-07-22T08:49:10;29.3;94.0
22676;DHT22;12521;43.310;21.876;2023-07-22T08:53:51;29.3;94.0
22676;DHT22;12521;43.310;21.876;2023-07-22T08:58:31;29.6;94.0
22676;DHT22;12521;43.310;21.876;2023-07-22T09:03:12;29.6;94.0
22676;DHT22;12521;43.310;21.876;2023-07-22T09:07:51;29.8;93.0
22676;DHT22;12521;43.310;21.876;2023-07-22T09:12:31;29.8;93.0
22676;DHT22;12521;43.310;21.876;2023-07-22T09:17:09;30.0;92.0
22676;DHT22;12521;43.310;21.876;2023-07-22T09:21:46;30.0;92.0
22676;DHT22;12521;43.310;21.876;2023-07-22T09:26:23;30.2;92.0
22676;DHT22;12521;43.310;21.876;2023-07-22T09:31:04;30.2;92.0
22676;DHT22;12521;43.310;21.876;2023-07-22T09:35:49;30.4;91.0
22676;DHT22;12521;43.310;21.876;2023-07-22T09:40:28;30.4;91.0
22676;DHT22;12521;43.310;21.876;2023-07-22T09:45:08;30.6;91.0
22676;DHT22;12521;43.310;21.876;2023-07-22T09:49:45;30.6;91.0
22676;DHT22;12521;43.310;21.876;2023-07-22T09:54:21;30.6;91.0
22676;DHT22;12521;43.310;21.876;2023-07-22T09:59:04;31.0;90.0
22676;DHT22;12521;43.310;21.876;2023-07-22T10:03:46;31.0;90.0
22676;DHT22;12521;43.310;21.876;2023-07-22T10:08:36;31.4;90.0
22676;DHT22;12521;43.310;21.876;2023-07-22T10:13:15;31.4;90.0
22676;DHT22;12521;43.310;21.876;2023-07-22T10:17:56;31.7;89.0
22676;DHT22;12521;43.310;21.876;2023-07-22T10:22:37;31.7;89.0
22676;DHT22;12521;43.310;21.876;2023-07-22T10:27:17;32.0;88.0
22676;DHT22;12521;43.310;21.876;2023-07-22T10:31:55;32.0;88.0
22676;DHT22;12521;43.310;21.876;2023-07-22T10:36:32;32.4;88.0
22676;DHT22;12521;43.310;21.876;2023-07-22T10:41:17;32.4;88.0
22676;DHT22;12521;43.310;21.876;2023-07-22T10:46:04;32.8;87.0
22676;DHT22;12521;43.310;21.876;2023-07-22T10:50:47;32.8;87.0
22676;DHT22;12521;43.310;21.876;2023-07-22T10:55:26;33.2;86.0
22676;DHT22;12521;43.310;21.876;2023-07-22T11:00:04;33.2;86.0
22676;DHT22;12521;43.310;21.876;2023-07-22T11:04:40;33.2;86.0
22676;DHT22;12521;43.310;21.876;2023-07-22T11:09:40;33.5;85.0
22676;DHT22;12521;43.310;21.876;2023-07-22T11:14:23;33.5;85.0
22676;DHT22;12521;43.310;21.876;2023-07-22T11:19:01;33.8;84.0
22676;DHT22;12521;43.310;21.876;2023-07-22T11:23:38;33.8;84.0
22676;DHT22;12521;43.310;21.876;2023-07-22T11:28:15;34.1;83.0
22676;DHT22;12521;43.310;21.876;2023-07-22T11:32:51;34.1;83.0
22676;DHT22;12521;43.310;21.876;2023-07-22T11:37:28;34.2;83.0
22676;DHT22;12521;43.310;21.876;2023-07-22T11:42:07;34.2;83.0
22676;DHT22;12521;43.310;21.876;2023-07-22T11:46:57;34.4;82.0
22676;DHT22;12521;43.310;21.876;2023-07-22T11:51:43;34.4;82.0
22676;DHT22;12521;43.310;21.876;2023-07-22T11:56:28;34.6;82.0
22676;DHT22;12521;43.310;21.876;2023-07-22T12:01:11;34.6;82.0
22676;DHT22;12521;43.310;21.876;2023-07-22T12:05:47;34.9;82.0
22676;DHT22;12521;43.310;21.876;2023-07-22T12:10:24;34.9;82.0
22676;DHT22;12521;43.310;21.876;2023-07-22T12:15:12;35.0;81.0
22676;DHT22;12521;43.310;21.876;2023-07-22T12:19:53;35.0;81.0
22676;DHT22;12521;43.310;21.876;2023-07-22T12:24:32;35.0;81.0
22676;DHT22;12521;43.310;21.876;2023-07-22T12:29:09;35.2;81.0
22676;DHT22;12521;43.310;21.876;2023-07-22T12:33:46;35.2;81.0
22676;DHT22;12521;43.310;21.876;2023-07-22T12:38:24;35.4;81.0
22676;DHT22;12521;43.310;21.876;2023-07-22T12:43:00;35.4;81.0
22676;DHT22;12521;43.310;21.876;2023-07-22T12:47:37;35.5;81.0
22676;DHT22;12521;43.310;21.876;2023-07-22T12:52:14;35.5;81.0
22676;DHT22;12521;43.310;21.876;2023-07-22T12:56:50;35.8;80.0
22676;DHT22;12521;43.310;21.876;2023-07-22T13:01:27;35.8;80.0
22676;DHT22;12521;43.310;21.876;2023-07-22T13:06:04;36.1;79.0
22676;DHT22;12521;43.310;21.876;2023-07-22T13:10:40;36.1;79.0
22676;DHT22;12521;43.310;21.876;2023-07-22T13:15:17;36.2;79.0
22676;DHT22;12521;43.310;21.876;2023-07-22T13:19:53;36.2;79.0
22676;DHT22;12521;43.310;21.876;2023-07-22T13:24:30;36.2;79.0
22676;DHT22;12521;43.310;21.876;2023-07-22T13:29:06;36.2;80.0
22676;DHT22;12521;43.310;21.876;2023-07-22T13:33:42;36.2;80.0
22676;DHT22;12521;43.310;21.876;2023-07-22T13:38:18;35.9;80.0
22676;DHT22;12521;43.310;21.876;2023-07-22T13:42:55;35.9;80.0
22676;DHT22;12521;43.310;21.876;2023-07-22T13:47:31;35.6;81.0
22676;DHT22;12521;43.310;21.876;2023-07-22T13:52:07;35.6;81.0
22676;DHT22;12521;43.310;21.876;2023-07-22T13:56:44;34.4;84.0
22676;DHT22;12521;43.310;21.876;2023-07-22T14:01:21;34.4;84.0
22676;DHT22;12521;43.310;21.876;2023-07-22T14:05:57;33.3;86.0
22676;DHT22;12521;43.310;21.876;2023-07-22T14:10:35;33.3;86.0
22676;DHT22;12521;43.310;21.876;2023-07-22T14:15:12;32.6;89.0
22676;DHT22;12521;43.310;21.876;2023-07-22T14:19:48;32.6;89.0
22676;DHT22;12521;43.310;21.876;2023-07-22T14:24:25;32.6;89.0
22676;DHT22;12521;43.310;21.876;2023-07-22T14:29:02;31.9;91.0
22676;DHT22;12521;43.310;21.876;2023-07-22T14:33:39;31.9;91.0
22676;DHT22;12521;43.310;21.876;2023-07-22T14:38:16;31.8;92.0
22676;DHT22;12521;43.310;21.876;2023-07-22T14:42:52;31.8;92.0
22676;DHT22;12521;43.310;21.876;2023-07-22T14:47:29;31.7;93.0
22676;DHT22;12521;43.310;21.876;2023-07-22T14:52:07;31.7;93.0
22676;DHT22;12521;43.310;21.876;2023-07-22T14:56:44;31.6;93.0
22676;DHT22;12521;43.310;21.876;2023-07-22T15:01:22;31.6;93.0
22676;DHT22;12521;43.310;21.876;2023-07-22T15:05:58;31.6;93.0
22676;DHT22;12521;43.310;21.876;2023-07-22T15:10:35;31.6;93.0
22676;DHT22;12521;43.310;21.876;2023-07-22T15:15:13;31.2;95.0
22676;DHT22;12521;43.310;21.876;2023-07-22T15:19:49;31.2;95.0
22676;DHT22;12521;43.310;21.876;2023-07-22T15:24:26;31.2;95.0
22676;DHT22;12521;43.310;21.876;2023-07-22T15:29:03;31.4;96.0
22676;DHT22;12521;43.310;21.876;2023-07-22T15:33:39;31.4;96.0
22676;DHT22;12521;43.310;21.876;2023-07-22T15:38:16;31.4;96.0
22676;DHT22;12521;43.310;21.876;2023-07-22T15:42:52;31.4;96.0
22676;DHT22;12521;43.310;21.876;2023-07-22T15:47:28;32.3;96.0
22676;DHT22;12521;43.310;21.876;2023-07-22T15:52:06;32.3;96.0
22676;DHT22;12521;43.310;21.876;2023-07-22T15:56:43;32.6;95.0
22676;DHT22;12521;43.310;21.876;2023-07-22T16:01:19;32.6;95.0
22676;DHT22;12521;43.310;21.876;2023-07-22T16:05:56;32.6;95.0
22676;DHT22;12521;43.310;21.876;2023-07-22T16:10:33;31.6;96.0
22676;DHT22;12521;43.310;21.876;2023-07-22T16:15:10;31.6;96.0
22676;DHT22;12521;43.310;21.876;2023-07-22T16:19:46;30.5;96.0
22676;DHT22;12521;43.310;21.876;2023-07-22T16:24:22;30.5;96.0
22676;DHT22;12521;43.310;21.876;2023-07-22T16:28:58;29.6;96.0
22676;DHT22;12521;43.310;21.876;2023-07-22T16:33:34;29.6;96.0
22676;DHT22;12521;43.310;21.876;2023-07-22T16:38:11;28.7;96.0
22676;DHT22;12521;43.310;21.876;2023-07-22T16:42:48;28.7;96.0
22676;DHT22;12521;43.310;21.876;2023-07-22T16:47:24;27.2;96.0
22676;DHT22;12521;43.310;21.876;2023-07-22T16:52:01;27.2;96.0
22676;DHT22;12521;43.310;21.876;2023-07-22T16:56:37;25.6;96.0
22676;DHT22;12521;43.310;21.876;2023-07-22T17:01:15;25.6;96.0
22676;DHT22;12521;43.310;21.876;2023-07-22T17:05:51;25.6;96.0
22676;DHT22;12521;43.310;21.876;2023-07-22T17:10:28;24.0;96.0
22676;DHT22;12521;43.310;21.876;2023-07-22T17:15:09;24.0;96.0
22676;DHT22;12521;43.310;21.876;2023-07-22T17:19:46;22.4;96.0
22676;DHT22;12521;43.310;21.876;2023-07-22T17:24:22;22.4;96.0
22676;DHT22;12521;43.310;21.876;2023-07-22T17:28:58;23.4;96.0
22676;DHT22;12521;43.310;21.876;2023-07-22T17:33:35;23.4;96.0
22676;DHT22;12521;43.310;21.876;2023-07-22T17:38:11;24.3;96.0
22676;DHT22;12521;43.310;21.876;2023-07-22T17:42:48;24.3;96.0
22676;DHT22;12521;43.310;21.876;2023-07-22T17:47:24;24.2;96.0
22676;DHT22;12521;43.310;21.876;2023-07-22T17:52:00;24.2;96.0
22676;DHT22;12521;43.310;21.876;2023-07-22T17:56:37;24.0;96.0
22676;DHT22;12521;43.310;21.876;2023-07-22T18:01:14;24.0;96.0
22676;DHT22;12521;43.310;21.876;2023-07-22T18:05:51;24.0;96.0
22676;DHT22;12521;43.310;21.876;2023-07-22T18:10:27;24.3;96.0
22676;DHT22;12521;43.310;21.876;2023-07-22T18:15:06;24.3;96.0
22676;DHT22;12521;43.310;21.876;2023-07-22T18:19:43;24.6;96.0
22676;DHT22;12521;43.310;21.876;2023-07-22T18:24:20;24.6;96.0
22676;DHT22;12521;43.310;21.876;2023-07-22T18:28:58;24.9;96.0
22676;DHT22;12521;43.310;21.876;2023-07-22T18:33:34;24.9;96.0
22676;DHT22;12521;43.310;21.876;2023-07-22T18:38:10;25.2;96.0
22676;DHT22;12521;43.310;21.876;2023-07-22T18:42:47;25.2;96.0
22676;DHT22;12521;43.310;21.876;2023-07-22T18:47:24;25.4;96.0
22676;DHT22;12521;43.310;21.876;2023-07-22T18:52:01;25.4;96.0
22676;DHT22;12521;43.310;21.876;2023-07-22T18:56:37;25.5;96.0
22676;DHT22;12521;43.310;21.876;2023-07-22T19:01:13;25.5;96.0
22676;DHT22;12521;43.310;21.876;2023-07-22T19:05:51;25.5;96.0
22676;DHT22;12521;43.310;21.876;2023-07-22T19:10:28;25.5;96.0
22676;DHT22;12521;43.310;21.876;2023-07-22T19:15:08;25.5;96.0
22676;DHT22;12521;43.310;21.876;2023-07-22T19:19:46;25.5;96.0
22676;DHT22;12521;43.310;21.876;2023-07-22T19:24:23;25.5;96.0
22676;DHT22;12521;43.310;21.876;2023-07-22T19:28:59;25.4;96.0
22676;DHT22;12521;43.310;21.876;2023-07-22T19:33:36;25.4;96.0
22676;DHT22;12521;43.310;21.876;2023-07-22T19:38:13;25.4;96.0
22676;DHT22;12521;43.310;21.876;2023-07-22T19:42:50;25.4;96.0
22676;DHT22;12521;43.310;21.876;2023-07-22T19:47:27;25.1;96.0
22676;DHT22;12521;43.310;21.876;2023-07-22T19:52:05;25.1;96.0
22676;DHT22;12521;43.310;21.876;2023-07-22T19:56:42;24.8;96.0
22676;DHT22;12521;43.310;21.876;2023-07-22T20:01:18;24.8;96.0
22676;DHT22;12521;43.310;21.876;2023-07-22T20:05:57;24.8;96.0
22676;DHT22;12521;43.310;21.876;2023-07-22T20:10:35;24.6;96.0
22676;DHT22;12521;43.310;21.876;2023-07-22T20:15:12;24.6;96.0
22676;DHT22;12521;43.310;21.876;2023-07-22T20:19:50;24.5;96.0
22676;DHT22;12521;43.310;21.876;2023-07-22T20:24:26;24.5;96.0
22676;DHT22;12521;43.310;21.876;2023-07-22T20:29:03;24.4;96.0
22676;DHT22;12521;43.310;21.876;2023-07-22T20:33:40;24.4;96.0
22676;DHT22;12521;43.310;21.876;2023-07-22T20:38:16;24.3;96.0
22676;DHT22;12521;43.310;21.876;2023-07-22T20:42:53;24.3;96.0
22676;DHT22;12521;43.310;21.876;2023-07-22T20:47:30;24.2;96.0
22676;DHT22;12521;43.310;21.876;2023-07-22T20:52:07;24.2;96.0
22676;DHT22;12521;43.310;21.876;2023-07-22T20:56:45;24.1;96.0
22676;DHT22;12521;43.310;21.876;2023-07-22T21:01:23;24.1;96.0
22676;DHT22;12521;43.310;21.876;2023-07-22T21:06:00;24.1;96.0
22676;DHT22;12521;43.310;21.876;2023-07-22T21:10:37;24.0;96.0
22676;DHT22;12521;43.310;21.876;2023-07-22T21:15:13;24.0;96.0
22676;DHT22;12521;43.310;21.876;2023-07-22T21:19:50;23.9;96.0
22676;DHT22;12521;43.310;21.876;2023-07-22T21:24:26;23.9;96.0
22676;DHT22;12521;43.310;21.876;2023-07-22T21:29:04;23.8;96.0
22676;DHT22;12521;43.310;21.876;2023-07-22T21:33:41;23.8;96.0
22676;DHT22;12521;43.310;21.876;2023-07-22T21:38:17;23.8;96.0
22676;DHT22;12521;43.310;21.876;2023-07-22T21:42:53;23.8;96.0
22676;DHT22;12521;43.310;21.876;2023-07-22T21:47:29;23.7;96.0
22676;DHT22;12521;43.310;21.876;2023-07-22T21:52:06;23.7;96.0
22676;DHT22;12521;43.310;21.876;2023-07-22T21:56:43;23.6;96.0
22676;DHT22;12521;43.310;21.876;2023-07-22T22:01:19;23.6;96.0
22676;DHT22;12521;43.310;21.876;2023-07-22T22:05:58;23.6;96.0
22676;DHT22;12521;43.310;21.876;2023-07-22T22:10:38;23.5;96.0
22676;DHT22;12521;43.310;21.876;2023-07-22T22:15:14;23.5;96.0
22676;DHT22;12521;43.310;21.876;2023-07-22T22:19:51;23.4;96.0
22676;DHT22;12521;43.310;21.876;2023-07-22T22:24:27;23.4;96.0
22676;DHT22;12521;43.310;21.876;2023-07-22T22:29:04;23.4;96.0
22676;DHT22;12521;43.310;21.876;2023-07-22T22:33:41;23.4;96.0
22676;DHT22;12521;43.310;21.876;2023-07-22T22:38:17;23.4;96.0
22676;DHT22;12521;43.310;21.876;2023-07-22T22:42:54;23.4;96.0
22676;DHT22;12521;43.310;21.876;2023-07-22T22:47:31;23.4;96.0
22676;DHT22;12521;43.310;21.876;2023-07-22T22:52:08;23.4;96.0
22676;DHT22;12521;43.310;21.876;2023-07-22T22:56:44;23.4;96.0
22676;DHT22;12521;43.310;21.876;2023-07-22T23:01:20;23.4;96.0
22676;DHT22;12521;43.310;21.876;2023-07-22T23:05:57;23.4;96.0
22676;DHT22;12521;43.310;21.876;2023-07-22T23:10:33;23.2;96.0
22676;DHT22;12521;43.310;21.876;2023-07-22T23:15:10;23.2;96.0
22676;DHT22;12521;43.310;21.876;2023-07-22T23:19:49;23.1;96.0
22676;DHT22;12521;43.310;21.876;2023-07-22T23:24:26;23.1;96.0
22676;DHT22;12521;43.310;21.876;2023-07-22T23:29:02;23.0;96.0
22676;DHT22;12521;43.310;21.876;2023-07-22T23:33:39;23.0;96.0
22676;DHT22;12521;43.310;21.876;2023-07-22T23:38:15;22.8;96.0
22676;DHT22;12521;43.310;21.876;2023-07-22T23:42:51;22.8;96.0
22676;DHT22;12521;43.310;21.876;2023-07-22T23:47:28;22.8;96.0
22676;DHT22;12521;43.310;21.876;2023-07-22T23:52:06;22.8;96.0
22676;DHT22;12521;43.310;21.876;2023-07-22T23:56:43;22.8;96.0
